Terminal Aerodrome Forecast
Issued by NWS

Home | Current Version | Previous Version | Graphics & Text | Print | Product List | Glossary On
Versions: 1 2 3 4 5 6 7 8 9 10 11 12 13 14 15 16 17 18 19 20 21 22 23 24 25 26
000
FTUS43 KLOT 210526
TAFGYY
TAF
KGYY 210526Z 2106/2206 31012G18KT 6SM -RA SCT007 OVC012
     FM210800 32012G18KT 5SM -FZRAPL BR SCT007 OVC012
     FM211100 33012G18KT P6SM BKN015
     FM211400 34012KT P6SM BKN250
     FM211900 01011KT P6SM FEW025 BKN200
     FM220200 03010KT P6SM BKN150=

USA.gov is the U.S. government's official web portal to all federal, state and local government web resources and services.